createdAt,value
2023-03-06T00:01:19.620Z,4.40
2023-03-06T00:03:48.026Z,4.40
2023-03-06T00:06:16.496Z,4.40
2023-03-06T00:08:47.433Z,4.40
2023-03-06T00:11:18.201Z,4.50
2023-03-06T00:13:51.692Z,4.40
2023-03-06T00:16:20.200Z,4.40
2023-03-06T00:18:52.893Z,4.40
2023-03-06T00:21:23.761Z,4.30
2023-03-06T00:23:51.040Z,4.30
2023-03-06T00:26:23.030Z,4.40
2023-03-06T00:28:52.711Z,4.40
2023-03-06T00:31:25.692Z,4.30
2023-03-06T00:33:54.153Z,4.30
2023-03-06T00:36:23.673Z,4.30
2023-03-06T00:38:55.298Z,4.30
2023-03-06T00:41:28.121Z,4.30
2023-03-06T00:44:01.771Z,4.30
2023-03-06T00:46:32.988Z,4.30
2023-03-06T00:49:03.609Z,4.40
2023-03-06T00:51:34.310Z,4.40
2023-03-06T00:54:02.815Z,4.40
2023-03-06T00:56:33.234Z,4.30
2023-03-06T00:59:05.121Z,4.30
2023-03-06T01:01:37.697Z,4.30
2023-03-06T01:04:05.878Z,4.30
2023-03-06T01:06:35.522Z,4.30
2023-03-06T01:09:05.551Z,4.40
2023-03-06T01:11:36.011Z,4.40
2023-03-06T01:14:05.625Z,4.30
2023-03-06T01:16:33.938Z,4.40
2023-03-06T01:19:02.006Z,4.40
2023-03-06T01:21:32.147Z,4.30
2023-03-06T01:24:00.980Z,4.30
2023-03-06T01:26:31.228Z,4.40
2023-03-06T01:29:01.255Z,4.40
2023-03-06T01:31:29.078Z,4.40
2023-03-06T01:34:00.492Z,4.30
2023-03-06T01:36:31.286Z,4.30
2023-03-06T01:38:59.687Z,4.30
2023-03-06T01:41:28.960Z,4.30
2023-03-06T01:44:04.019Z,4.30
2023-03-06T01:46:43.653Z,4.30
2023-03-06T01:49:39.319Z,4.30
2023-03-06T01:52:20.650Z,4.30
2023-03-06T01:55:13.330Z,4.30
2023-03-06T01:57:53.897Z,4.30
2023-03-06T02:00:30.145Z,4.30
2023-03-06T02:03:07.470Z,4.30
2023-03-06T02:05:46.391Z,4.20
2023-03-06T02:08:21.573Z,4.20
2023-03-06T02:11:19.114Z,4.20
2023-03-06T02:13:55.941Z,4.30
2023-03-06T02:16:52.817Z,4.30
2023-03-06T02:20:01.485Z,4.30
2023-03-06T02:23:08.646Z,4.30
2023-03-06T02:26:04.709Z,4.20
2023-03-06T02:28:31.743Z,4.20
2023-03-06T02:31:02.578Z,4.20
2023-03-06T02:33:33.118Z,4.10
2023-03-06T02:36:24.629Z,4.10
2023-03-06T02:38:57.663Z,4.20
2023-03-06T02:41:28.608Z,4.20
2023-03-06T02:43:59.586Z,4.20
2023-03-06T02:46:29.456Z,4.20
2023-03-06T02:48:59.429Z,4.10
2023-03-06T02:51:31.484Z,4.20
2023-03-06T02:54:00.048Z,4.20
2023-03-06T02:56:32.979Z,4.10
2023-03-06T02:59:04.967Z,4.10
2023-03-06T03:01:35.221Z,4.20
2023-03-06T03:04:06.994Z,4.20
2023-03-06T03:09:26.079Z,4.10
2023-03-06T03:11:56.867Z,4.10
2023-03-06T03:14:27.242Z,4.10
2023-03-06T03:16:57.531Z,4.10
2023-03-06T03:19:28.899Z,4.00
2023-03-06T03:21:58.592Z,4.10
2023-03-06T03:24:26.715Z,4.00
2023-03-06T03:26:58.948Z,4.00
2023-03-06T03:29:27.760Z,4.00
2023-03-06T03:31:59.558Z,3.90
2023-03-06T03:34:28.915Z,3.90
2023-03-06T03:36:58.341Z,3.90
2023-03-06T03:39:30.381Z,3.80
2023-03-06T03:41:59.447Z,3.80
2023-03-06T03:44:28.733Z,3.90
2023-03-06T03:46:59.765Z,3.80
2023-03-06T03:49:26.820Z,3.90
2023-03-06T03:51:58.782Z,3.90
2023-03-06T03:54:34.519Z,3.90
2023-03-06T03:57:05.171Z,3.80
2023-03-06T03:59:39.335Z,3.70
2023-03-06T04:02:26.775Z,3.70
2023-03-06T04:05:16.857Z,3.70
2023-03-06T04:07:46.593Z,3.70
2023-03-06T04:10:22.304Z,3.70
2023-03-06T04:12:54.006Z,3.70
2023-03-06T04:15:26.850Z,3.60
2023-03-06T04:17:57.362Z,3.60
2023-03-06T04:20:28.909Z,3.60
2023-03-06T04:23:07.395Z,3.60
2023-03-06T04:25:39.063Z,3.50
2023-03-06T04:28:12.606Z,3.50
2023-03-06T04:30:43.446Z,3.60
2023-03-06T04:33:10.973Z,3.40
2023-03-06T04:35:39.576Z,3.50
2023-03-06T04:38:18.047Z,3.60
2023-03-06T04:40:47.247Z,3.50
2023-03-06T04:43:18.272Z,3.40
2023-03-06T04:45:48.267Z,3.30
2023-03-06T04:48:20.956Z,3.30
2023-03-06T04:50:54.298Z,3.30
2023-03-06T04:53:23.985Z,3.30
2023-03-06T04:55:53.317Z,3.30
2023-03-06T04:58:24.232Z,3.30
2023-03-06T05:00:55.876Z,3.40
2023-03-06T05:03:27.830Z,3.30
2023-03-06T05:06:00.282Z,3.30
2023-03-06T05:08:29.087Z,3.20
2023-03-06T05:11:04.290Z,3.30
2023-03-06T05:13:37.114Z,3.20
2023-03-06T05:16:08.591Z,3.20
2023-03-06T05:18:41.269Z,3.10
2023-03-06T05:21:13.207Z,3.10
2023-03-06T05:23:43.247Z,3.10
2023-03-06T05:26:12.482Z,3.20
2023-03-06T05:28:41.142Z,3.10
2023-03-06T05:31:08.534Z,2.90
2023-03-06T05:33:39.257Z,2.90
2023-03-06T05:36:11.784Z,2.90
2023-03-06T05:38:43.464Z,2.90
2023-03-06T05:41:16.450Z,2.90
2023-03-06T05:43:46.672Z,2.90
2023-03-06T05:46:17.289Z,2.80
2023-03-06T05:48:48.883Z,2.90
2023-03-06T05:51:20.376Z,2.90
2023-03-06T05:53:50.435Z,3.00
2023-03-06T05:56:19.381Z,3.00
2023-03-06T05:58:53.926Z,2.80
2023-03-06T06:01:25.319Z,3.00
2023-03-06T06:03:56.275Z,3.00
2023-03-06T06:06:26.833Z,3.00
2023-03-06T06:08:57.232Z,2.80
2023-03-06T06:11:28.686Z,3.00
2023-03-06T06:14:00.358Z,3.00
2023-03-06T06:16:28.616Z,3.20
2023-03-06T06:18:58.061Z,3.10
2023-03-06T06:21:30.625Z,3.10
2023-03-06T06:24:07.582Z,3.20
2023-03-06T06:26:38.275Z,3.20
2023-03-06T06:29:10.562Z,3.10
2023-03-06T06:31:39.227Z,3.30
2023-03-06T06:34:11.053Z,3.30
2023-03-06T06:36:41.949Z,3.30
2023-03-06T06:39:13.001Z,3.40
2023-03-06T06:41:59.329Z,3.40
2023-03-06T06:44:33.234Z,3.40
2023-03-06T06:47:23.943Z,3.50
2023-03-06T06:49:55.003Z,3.50
2023-03-06T06:52:24.241Z,3.40
2023-03-06T06:54:55.624Z,3.30
2023-03-06T06:57:25.164Z,3.40
2023-03-06T07:00:05.444Z,3.40
2023-03-06T07:02:38.119Z,3.40
2023-03-06T07:05:08.772Z,3.50
2023-03-06T07:07:41.627Z,3.70
2023-03-06T07:10:18.356Z,3.70
2023-03-06T07:12:50.448Z,3.70
2023-03-06T07:15:22.989Z,3.90
2023-03-06T07:17:53.089Z,3.90
2023-03-06T07:20:25.842Z,4.00
2023-03-06T07:22:57.262Z,4.10
2023-03-06T07:25:28.542Z,4.20
2023-03-06T07:27:57.433Z,4.10
2023-03-06T07:30:28.742Z,4.20
2023-03-06T07:33:01.856Z,4.40
2023-03-06T07:35:33.533Z,4.40
2023-03-06T07:38:04.064Z,4.40
2023-03-06T07:40:35.029Z,4.50
2023-03-06T07:43:18.736Z,4.60
2023-03-06T07:46:10.907Z,4.70
2023-03-06T07:48:43.934Z,4.70
2023-03-06T07:51:20.863Z,4.60
2023-03-06T07:53:54.211Z,4.70
2023-03-06T07:56:25.493Z,4.80
2023-03-06T07:58:59.035Z,4.90
2023-03-06T08:01:30.214Z,5.00
2023-03-06T08:04:09.048Z,4.90
2023-03-06T08:06:39.739Z,5.10
2023-03-06T08:09:12.094Z,5.10
2023-03-06T08:11:40.744Z,5.30
2023-03-06T08:14:10.164Z,5.30
2023-03-06T08:16:42.778Z,5.40
2023-03-06T08:19:10.941Z,5.50
2023-03-06T08:21:42.765Z,5.60
2023-03-06T08:24:15.738Z,5.60
2023-03-06T08:26:50.015Z,5.80
2023-03-06T08:29:25.904Z,5.90
2023-03-06T08:31:57.308Z,5.90
2023-03-06T08:34:30.258Z,5.90
2023-03-06T08:37:02.217Z,5.90
2023-03-06T08:39:33.492Z,6.00
2023-03-06T08:42:04.135Z,6.10
2023-03-06T08:44:33.526Z,6.30
2023-03-06T08:47:05.079Z,6.30
2023-03-06T08:49:37.499Z,6.30
2023-03-06T08:52:07.266Z,6.20
2023-03-06T08:54:36.645Z,6.30
2023-03-06T08:57:04.875Z,6.30
2023-03-06T08:59:36.369Z,6.60
2023-03-06T09:02:07.376Z,6.60
2023-03-06T09:04:37.635Z,6.70
2023-03-06T09:07:10.494Z,6.90
2023-03-06T09:09:40.870Z,6.80
2023-03-06T09:12:11.549Z,7.10
2023-03-06T09:14:44.323Z,7.20
2023-03-06T09:17:15.095Z,7.30
2023-03-06T09:19:42.338Z,7.40
2023-03-06T09:22:11.990Z,7.20
2023-03-06T09:24:44.222Z,7.30
2023-03-06T09:27:14.833Z,7.50
2023-03-06T09:29:42.921Z,7.40
2023-03-06T09:32:12.278Z,7.30
2023-03-06T09:34:44.609Z,7.30
2023-03-06T09:37:16.318Z,7.40
2023-03-06T09:39:45.538Z,7.50
2023-03-06T09:42:23.842Z,7.50
2023-03-06T09:45:01.921Z,7.40
2023-03-06T09:48:00.544Z,7.40
2023-03-06T09:50:45.636Z,7.50
2023-03-06T09:53:58.815Z,7.80
2023-03-06T09:56:32.114Z,7.70
2023-03-06T09:59:19.522Z,7.80
2023-03-06T10:02:14.294Z,7.70
2023-03-06T10:04:50.866Z,7.90
2023-03-06T10:07:47.945Z,7.90
2023-03-06T10:10:27.311Z,8.00
2023-03-06T10:13:13.841Z,7.60
2023-03-06T10:15:47.731Z,7.60
2023-03-06T10:18:20.393Z,7.60
2023-03-06T10:21:22.186Z,7.50
2023-03-06T10:24:11.930Z,7.30
2023-03-06T10:26:49.298Z,7.20
2023-03-06T10:30:03.521Z,7.20
2023-03-06T10:33:02.035Z,7.40
2023-03-06T10:35:53.853Z,7.30
2023-03-06T10:38:43.297Z,7.40
2023-03-06T10:41:19.708Z,7.50
2023-03-06T10:44:23.741Z,7.60
2023-03-06T10:46:56.959Z,7.60
2023-03-06T10:49:56.542Z,7.60
2023-03-06T10:52:26.150Z,7.80
2023-03-06T10:54:55.225Z,8.10
2023-03-06T10:57:31.466Z,8.30
2023-03-06T11:00:24.017Z,8.30
2023-03-06T11:03:26.804Z,8.30
2023-03-06T11:06:37.013Z,8.20
2023-03-06T11:09:32.376Z,7.90
2023-03-06T11:12:41.901Z,8.00
2023-03-06T11:15:22.526Z,8.00
2023-03-06T11:18:28.430Z,8.00
2023-03-06T11:20:58.550Z,8.00
2023-03-06T11:23:40.318Z,8.00
2023-03-06T11:26:30.276Z,8.00
2023-03-06T11:29:35.708Z,8.20
2023-03-06T11:32:27.008Z,8.30
2023-03-06T11:35:14.823Z,8.30
2023-03-06T11:38:22.212Z,8.50
2023-03-06T11:41:01.673Z,8.30
2023-03-06T11:44:07.531Z,8.30
2023-03-06T11:47:02.614Z,8.40
2023-03-06T11:50:14.512Z,8.40
2023-03-06T11:53:02.800Z,8.40
2023-03-06T11:55:43.291Z,8.30
2023-03-06T11:58:42.341Z,8.30
2023-03-06T12:01:40.586Z,8.10
2023-03-06T12:04:42.208Z,8.30
2023-03-06T12:07:42.093Z,8.30
2023-03-06T12:10:19.557Z,8.60
2023-03-06T12:13:28.407Z,8.90
2023-03-06T12:16:28.926Z,9.10
2023-03-06T12:19:22.799Z,8.90
2023-03-06T12:22:31.241Z,9.10
2023-03-06T12:25:11.939Z,9.20
2023-03-06T12:28:01.454Z,9.20
2023-03-06T12:30:53.199Z,9.60
2023-03-06T12:33:27.563Z,10.10
2023-03-06T12:36:33.465Z,10.00
2023-03-06T12:39:17.258Z,10.10
2023-03-06T12:42:26.994Z,10.40
2023-03-06T12:45:17.152Z,10.70
2023-03-06T12:47:51.739Z,11.50
2023-03-06T12:50:41.588Z,11.40
2023-03-06T12:53:18.454Z,10.90
2023-03-06T12:56:06.291Z,10.80
2023-03-06T12:58:56.294Z,10.90
2023-03-06T13:01:47.805Z,11.10
2023-03-06T13:04:47.019Z,10.80
2023-03-06T13:08:09.282Z,10.30
2023-03-06T13:10:45.094Z,10.50
2023-03-06T13:13:36.216Z,10.20
2023-03-06T13:16:11.872Z,10.10
2023-03-06T13:18:47.068Z,10.10
2023-03-06T13:21:55.197Z,9.90
2023-03-06T13:24:46.761Z,9.50
2023-03-06T13:27:56.775Z,9.70
2023-03-06T13:30:53.258Z,9.40
2023-03-06T13:33:33.036Z,9.20
2023-03-06T13:36:23.736Z,9.30
2023-03-06T13:39:13.863Z,9.30
2023-03-06T13:42:01.957Z,9.40
2023-03-06T13:44:34.889Z,9.40
2023-03-06T13:48:21.174Z,9.40
2023-03-06T13:50:49.830Z,9.00
2023-03-06T13:53:57.612Z,9.00
2023-03-06T13:56:53.079Z,9.30
2023-03-06T13:59:57.040Z,9.30
2023-03-06T14:03:17.089Z,9.00
2023-03-06T14:05:52.803Z,9.30
2023-03-06T14:08:30.704Z,9.10
2023-03-06T14:11:24.464Z,8.90
2023-03-06T14:13:59.077Z,8.90
2023-03-06T14:16:43.760Z,8.90
2023-03-06T14:19:18.706Z,8.90
2023-03-06T14:22:04.368Z,8.70
2023-03-06T14:24:48.426Z,8.70
2023-03-06T14:27:20.593Z,8.80
2023-03-06T14:29:54.671Z,8.60
2023-03-06T14:32:28.756Z,8.90
2023-03-06T14:34:58.030Z,8.80
2023-03-06T14:37:32.147Z,8.70
2023-03-06T14:40:00.109Z,8.90
2023-03-06T14:42:30.519Z,9.00
2023-03-06T14:45:18.920Z,8.80
2023-03-06T14:47:53.298Z,8.70
2023-03-06T14:50:42.050Z,8.80
2023-03-06T14:53:31.928Z,8.80
2023-03-06T14:56:06.894Z,8.70
2023-03-06T14:59:11.393Z,8.80
2023-03-06T15:01:50.008Z,8.90
2023-03-06T15:04:26.737Z,8.80
2023-03-06T15:07:01.907Z,8.80
2023-03-06T15:09:35.129Z,8.70
2023-03-06T15:12:23.684Z,8.70
2023-03-06T15:15:11.773Z,8.80
2023-03-06T15:18:01.819Z,9.00
2023-03-06T15:21:01.376Z,9.20
2023-03-06T15:24:00.535Z,9.10
2023-03-06T15:26:33.250Z,8.90
2023-03-06T15:29:26.723Z,8.70
2023-03-06T15:32:14.895Z,8.60
2023-03-06T15:34:47.434Z,8.60
2023-03-06T15:37:31.471Z,8.70
2023-03-06T15:40:29.453Z,8.60
2023-03-06T15:42:58.866Z,8.60
2023-03-06T15:45:30.621Z,8.50
2023-03-06T15:47:59.328Z,8.40
2023-03-06T15:50:32.212Z,8.30
2023-03-06T15:53:01.952Z,8.30
2023-03-06T15:55:40.957Z,8.30
2023-03-06T15:58:19.365Z,8.30
2023-03-06T16:00:48.228Z,8.20
2023-03-06T16:03:17.668Z,8.10
2023-03-06T16:05:50.491Z,8.10
2023-03-06T16:08:23.223Z,8.10
2023-03-06T16:10:54.758Z,8.20
2023-03-06T16:13:28.464Z,8.10
2023-03-06T16:16:04.220Z,8.10
2023-03-06T16:18:33.827Z,7.90
2023-03-06T16:21:06.073Z,7.80
2023-03-06T16:23:40.704Z,7.80
2023-03-06T16:26:24.459Z,7.80
2023-03-06T16:28:59.392Z,7.70
2023-03-06T16:31:27.162Z,7.60
2023-03-06T16:33:54.978Z,7.60
2023-03-06T16:36:29.228Z,7.50
2023-03-06T16:39:07.296Z,7.50
2023-03-06T16:41:43.562Z,7.50
2023-03-06T16:44:16.390Z,7.50
2023-03-06T16:46:47.959Z,7.50
2023-03-06T16:49:40.403Z,7.50
2023-03-06T16:52:11.526Z,7.50
2023-03-06T16:54:44.243Z,7.40
2023-03-06T16:57:20.115Z,7.50
2023-03-06T16:59:50.975Z,7.40
2023-03-06T17:02:20.561Z,7.40
2023-03-06T17:04:55.626Z,7.40
2023-03-06T17:07:24.502Z,7.40
2023-03-06T17:09:55.105Z,7.40
2023-03-06T17:12:25.950Z,7.40
2023-03-06T17:14:56.602Z,7.40
2023-03-06T17:17:30.582Z,7.40
2023-03-06T17:20:09.561Z,7.30
2023-03-06T17:22:37.010Z,7.30
2023-03-06T17:25:11.604Z,7.30
2023-03-06T17:27:42.454Z,7.30
2023-03-06T17:30:14.843Z,7.30
2023-03-06T17:32:44.864Z,7.30
2023-03-06T17:35:15.515Z,7.20
2023-03-06T17:37:52.231Z,7.20
2023-03-06T17:40:28.634Z,7.20
2023-03-06T17:42:59.103Z,7.20
2023-03-06T17:45:32.820Z,7.20
2023-03-06T17:48:16.997Z,7.20
2023-03-06T17:51:00.232Z,7.10
2023-03-06T17:53:36.543Z,7.10
2023-03-06T17:56:11.976Z,7.10
2023-03-06T17:58:44.944Z,7.00
2023-03-06T18:01:24.906Z,6.90
2023-03-06T18:04:00.564Z,7.00
2023-03-06T18:09:22.047Z,6.90
2023-03-06T18:12:06.308Z,6.90
2023-03-06T18:14:37.887Z,6.80
2023-03-06T18:19:54.450Z,6.80
2023-03-06T18:22:27.039Z,6.80
2023-03-06T18:25:00.438Z,6.80
2023-03-06T18:27:36.262Z,6.80
2023-03-06T18:30:11.705Z,6.80
2023-03-06T18:32:45.615Z,6.70
2023-03-06T18:35:19.820Z,6.80
2023-03-06T18:37:51.992Z,6.80
2023-03-06T18:40:28.343Z,6.80
2023-03-06T18:45:45.384Z,6.80
2023-03-06T18:48:26.425Z,6.90
2023-03-06T18:50:59.597Z,6.90
2023-03-06T18:53:33.964Z,6.90
2023-03-06T18:56:07.790Z,6.90
2023-03-06T18:58:44.224Z,6.90
2023-03-06T19:01:22.507Z,6.80
2023-03-06T19:03:54.348Z,6.80
2023-03-06T19:06:28.025Z,6.70
2023-03-06T19:09:01.857Z,6.70
2023-03-06T19:14:33.058Z,6.60
2023-03-06T19:17:02.420Z,6.60
2023-03-06T19:19:31.552Z,6.60
2023-03-06T19:22:02.554Z,6.50
2023-03-06T19:24:39.328Z,6.60
2023-03-06T19:30:07.869Z,6.50
2023-03-06T19:32:36.424Z,6.40
2023-03-06T19:35:05.987Z,6.40
2023-03-06T19:37:35.108Z,6.40
2023-03-06T19:40:09.338Z,6.40
2023-03-06T19:42:39.898Z,6.30
2023-03-06T19:45:09.195Z,6.30
2023-03-06T19:47:38.743Z,6.30
2023-03-06T19:52:48.511Z,6.20
2023-03-06T19:55:24.995Z,6.30
2023-03-06T19:57:54.427Z,6.20
2023-03-06T20:00:22.615Z,6.20
2023-03-06T20:02:51.591Z,6.20
2023-03-06T20:05:24.052Z,6.30
2023-03-06T20:07:52.688Z,6.30
2023-03-06T20:10:21.338Z,6.30
2023-03-06T20:12:51.317Z,6.30
2023-03-06T20:15:21.986Z,6.20
2023-03-06T20:17:52.156Z,6.20
2023-03-06T20:20:22.758Z,6.20
2023-03-06T20:22:53.038Z,6.20
2023-03-06T20:25:22.093Z,6.20
2023-03-06T20:27:52.322Z,6.20
2023-03-06T20:30:21.632Z,6.10
2023-03-06T20:32:53.054Z,6.10
2023-03-06T20:35:21.799Z,6.20
2023-03-06T20:37:53.169Z,6.20
2023-03-06T20:40:21.638Z,6.10
2023-03-06T20:42:51.726Z,6.00
2023-03-06T20:45:19.893Z,5.90
2023-03-06T20:47:49.489Z,6.00
2023-03-06T20:50:17.488Z,6.00
2023-03-06T20:52:45.241Z,6.10
2023-03-06T20:55:14.789Z,6.10
2023-03-06T20:57:42.823Z,6.10
2023-03-06T21:00:12.398Z,6.00
2023-03-06T21:02:40.133Z,6.00
2023-03-06T21:05:08.150Z,6.10
2023-03-06T21:07:36.535Z,6.00
2023-03-06T21:10:04.186Z,6.00
2023-03-06T21:12:33.255Z,6.00
2023-03-06T21:15:00.620Z,6.00
2023-03-06T21:17:30.286Z,6.00
2023-03-06T21:19:58.855Z,6.00
2023-03-06T21:22:26.200Z,6.00
2023-03-06T21:24:53.495Z,6.00
2023-03-06T21:27:20.880Z,6.00
2023-03-06T21:29:48.254Z,5.90
2023-03-06T21:32:15.261Z,6.00
2023-03-06T21:34:42.789Z,6.00
2023-03-06T21:37:10.101Z,6.00
2023-03-06T21:39:37.409Z,5.90
2023-03-06T21:42:04.457Z,5.90
2023-03-06T21:44:31.508Z,5.80
2023-03-06T21:46:58.956Z,5.80
2023-03-06T21:49:26.837Z,5.90
2023-03-06T21:51:53.821Z,5.80
2023-03-06T21:54:21.355Z,5.80
2023-03-06T21:56:48.387Z,5.70
2023-03-06T21:59:15.383Z,5.70
2023-03-06T22:01:42.782Z,5.70
2023-03-06T22:04:09.943Z,5.70
2023-03-06T22:06:39.469Z,5.70
2023-03-06T22:09:06.862Z,5.80
2023-03-06T22:11:37.288Z,5.80
2023-03-06T22:14:05.662Z,5.70
2023-03-06T22:16:33.376Z,5.60
2023-03-06T22:19:00.669Z,5.70
2023-03-06T22:21:27.924Z,5.70
2023-03-06T22:24:02.132Z,5.60
2023-03-06T22:26:30.048Z,5.70
2023-03-06T22:29:00.021Z,5.70
2023-03-06T22:31:28.886Z,5.70
2023-03-06T22:33:59.055Z,5.70
2023-03-06T22:36:27.754Z,5.70
2023-03-06T22:38:57.277Z,5.60
2023-03-06T22:41:26.794Z,5.60
2023-03-06T22:43:57.544Z,5.60
2023-03-06T22:46:25.530Z,5.60
2023-03-06T22:48:52.765Z,5.60
2023-03-06T22:51:20.941Z,5.60
2023-03-06T22:53:50.324Z,5.60
2023-03-06T22:56:19.527Z,5.70
2023-03-06T22:58:47.405Z,5.70
2023-03-06T23:01:19.207Z,5.70
2023-03-06T23:03:48.766Z,5.60
2023-03-06T23:06:23.759Z,5.60
2023-03-06T23:08:54.113Z,5.60
2023-03-06T23:11:23.567Z,5.60
2023-03-06T23:14:12.214Z,5.50
2023-03-06T23:16:58.217Z,5.50
2023-03-06T23:19:43.719Z,5.50
2023-03-06T23:22:29.302Z,5.60
2023-03-06T23:25:14.894Z,5.50
2023-03-06T23:27:42.232Z,5.40
2023-03-06T23:30:09.910Z,5.40
2023-03-06T23:32:36.956Z,5.40
2023-03-06T23:35:04.130Z,5.30
2023-03-06T23:37:32.117Z,5.20
2023-03-06T23:40:02.198Z,5.20
2023-03-06T23:42:29.207Z,5.10
2023-03-06T23:44:56.620Z,5.10
2023-03-06T23:47:23.533Z,5.10
2023-03-06T23:49:53.442Z,4.90
2023-03-06T23:52:20.405Z,4.90
2023-03-06T23:54:49.951Z,4.80
2023-03-06T23:57:16.900Z,4.80
2023-03-06T23:59:45.453Z,4.90
